createdAt,value
2019-04-18T00:01:05.825Z,59.81
2019-04-18T00:03:56.238Z,59.74
2019-04-18T00:06:27.293Z,59.99
2019-04-18T00:08:56.099Z,61.77
2019-04-18T00:11:24.875Z,59.16
2019-04-18T00:13:53.610Z,59.71
2019-04-18T00:16:24.589Z,58.84
2019-04-18T00:18:55.336Z,56.42
2019-04-18T00:21:24.116Z,55.27
2019-04-18T00:23:52.969Z,55.24
2019-04-18T00:26:21.622Z,55.12
2019-04-18T00:28:53.453Z,54.61
2019-04-18T00:31:20.838Z,54.82
2019-04-18T00:33:50.760Z,54.31
2019-04-18T00:36:20.061Z,54.31
2019-04-18T00:38:48.846Z,54.25
2019-04-18T00:41:17.636Z,54.50
2019-04-18T00:43:46.367Z,54.42
2019-04-18T00:46:16.873Z,54.08
2019-04-18T00:48:45.649Z,54.34
2019-04-18T00:51:14.336Z,54.41
2019-04-18T00:53:43.121Z,54.00
2019-04-18T00:56:11.899Z,54.24
2019-04-18T00:58:40.601Z,53.76
2019-04-18T01:01:12.927Z,53.72
2019-04-18T01:03:39.977Z,54.49
2019-04-18T01:06:09.049Z,54.64
2019-04-18T01:08:39.298Z,54.28
2019-04-18T01:11:08.204Z,54.33
2019-04-18T01:13:39.925Z,54.74
2019-04-18T01:16:07.475Z,54.82
2019-04-18T01:18:36.183Z,54.73
2019-04-18T01:21:07.235Z,54.67
2019-04-18T01:23:36.075Z,54.59
2019-04-18T01:26:10.810Z,54.77
2019-04-18T01:28:35.628Z,54.71
2019-04-18T01:31:04.654Z,54.46
2019-04-18T01:33:36.507Z,55.46
2019-04-18T01:36:04.645Z,55.52
2019-04-18T01:38:33.468Z,54.76
2019-04-18T01:41:02.189Z,54.99
2019-04-18T01:43:54.604Z,54.79
2019-04-18T01:46:30.296Z,54.51
2019-04-18T01:48:59.355Z,54.52
2019-04-18T01:51:28.269Z,54.48
2019-04-18T01:53:56.952Z,54.36
2019-04-18T01:56:25.740Z,54.84
2019-04-18T01:58:54.501Z,54.75
2019-04-18T02:01:23.309Z,54.81
2019-04-18T02:03:52.087Z,54.58
2019-04-18T02:06:20.889Z,55.09
2019-04-18T02:08:52.018Z,55.09
2019-04-18T02:11:20.303Z,55.25
2019-04-18T02:13:52.405Z,55.11
2019-04-18T02:16:19.599Z,55.17
2019-04-18T02:18:50.909Z,55.14
2019-04-18T02:21:18.818Z,55.25
2019-04-18T02:23:47.427Z,55.63
2019-04-18T02:26:17.311Z,55.65
2019-04-18T02:28:45.995Z,55.37
2019-04-18T02:31:14.644Z,56.17
2019-04-18T02:33:45.710Z,56.30
2019-04-18T02:36:13.842Z,56.10
2019-04-18T02:38:42.592Z,56.37
2019-04-18T02:41:12.674Z,56.37
2019-04-18T02:43:41.895Z,56.82
2019-04-18T02:46:13.289Z,56.58
2019-04-18T02:48:41.114Z,57.01
2019-04-18T02:51:11.577Z,57.39
2019-04-18T02:53:40.281Z,57.48
2019-04-18T02:56:15.387Z,57.40
2019-04-18T02:58:47.985Z,57.57
2019-04-18T03:01:35.776Z,57.94
2019-04-18T03:04:14.107Z,58.26
2019-04-18T03:06:43.858Z,58.08
2019-04-18T03:09:12.838Z,58.61
2019-04-18T03:11:42.780Z,59.07
2019-04-18T03:14:12.221Z,59.04
2019-04-18T03:16:49.957Z,59.34
2019-04-18T03:19:22.676Z,59.54
2019-04-18T03:21:51.731Z,60.15
2019-04-18T03:24:20.627Z,60.03
2019-04-18T03:26:49.345Z,60.26
2019-04-18T03:29:19.965Z,60.46
2019-04-18T03:31:58.190Z,60.44
2019-04-18T03:34:19.499Z,60.55
2019-04-18T03:37:05.970Z,60.75
2019-04-18T03:39:34.203Z,60.84
2019-04-18T03:42:03.016Z,60.81
2019-04-18T03:44:39.457Z,60.98
2019-04-18T03:47:10.619Z,61.19
2019-04-18T03:49:40.101Z,61.10
2019-04-18T03:52:09.928Z,61.42
2019-04-18T03:54:46.301Z,61.45
2019-04-18T03:57:09.477Z,61.47
2019-04-18T03:59:38.288Z,61.35
2019-04-18T04:02:06.998Z,61.49
2019-04-18T04:04:35.733Z,61.73
2019-04-18T04:07:04.519Z,61.66
2019-04-18T04:09:33.942Z,62.00
2019-04-18T04:12:04.408Z,61.92
2019-04-18T04:14:33.162Z,62.19
2019-04-18T04:17:01.881Z,62.37
2019-04-18T04:19:30.676Z,62.47
2019-04-18T04:22:04.901Z,62.63
2019-04-18T04:24:32.122Z,63.15
2019-04-18T04:27:00.849Z,63.17
2019-04-18T04:29:33.545Z,63.29
2019-04-18T04:32:00.068Z,63.29
2019-04-18T04:34:28.882Z,63.50
2019-04-18T04:36:57.568Z,63.64
2019-04-18T04:39:26.377Z,63.87
2019-04-18T04:41:55.096Z,63.79
2019-04-18T04:44:27.146Z,63.88
2019-04-18T04:47:32.373Z,63.81
2019-04-18T04:50:04.806Z,64.21
2019-04-18T04:52:31.514Z,64.46
2019-04-18T04:55:00.265Z,64.33
2019-04-18T04:57:36.887Z,64.24
2019-04-18T05:00:33.996Z,64.33
2019-04-18T05:03:02.690Z,64.21
2019-04-18T05:05:31.490Z,64.51
2019-04-18T05:08:00.205Z,64.92
2019-04-18T05:10:28.933Z,64.97
2019-04-18T05:12:58.333Z,64.44
2019-04-18T05:15:28.449Z,64.50
2019-04-18T05:17:59.603Z,64.22
2019-04-18T05:20:28.395Z,64.64
2019-04-18T05:22:57.357Z,65.07
2019-04-18T05:25:26.089Z,64.89
2019-04-18T05:27:54.861Z,64.63
2019-04-18T05:30:23.553Z,64.99
2019-04-18T05:32:52.255Z,65.18
2019-04-18T05:35:23.802Z,65.18
2019-04-18T05:37:51.488Z,65.03
2019-04-18T05:40:27.814Z,65.18
2019-04-18T05:42:56.931Z,65.02
2019-04-18T05:45:25.723Z,65.39
2019-04-18T05:47:58.238Z,65.51
2019-04-18T05:50:32.109Z,65.34
2019-04-18T05:53:21.054Z,65.80
2019-04-18T05:55:54.610Z,65.95
2019-04-18T05:58:30.581Z,65.38
2019-04-18T06:01:11.399Z,65.47
2019-04-18T06:04:12.152Z,65.32
2019-04-18T06:07:12.202Z,64.98
2019-04-18T06:09:42.513Z,64.88
2019-04-18T06:12:32.877Z,64.77
2019-04-18T06:15:26.521Z,64.33
2019-04-18T06:18:11.786Z,64.15
2019-04-18T06:20:59.714Z,64.27
2019-04-18T06:23:33.998Z,63.74
2019-04-18T06:26:17.966Z,64.02
2019-04-18T06:29:12.892Z,63.67
2019-04-18T06:31:50.377Z,63.25
2019-04-18T06:34:28.532Z,62.91
2019-04-18T06:37:03.146Z,62.81
2019-04-18T06:39:48.735Z,62.35
2019-04-18T06:42:27.964Z,62.45
2019-04-18T06:45:03.110Z,61.81
2019-04-18T06:47:37.157Z,61.44
2019-04-18T06:50:13.394Z,61.55
2019-04-18T06:52:45.710Z,61.41
2019-04-18T06:55:40.568Z,61.04
2019-04-18T06:58:35.531Z,61.16
2019-04-18T07:01:07.802Z,60.33
2019-04-18T07:03:42.753Z,60.12
2019-04-18T07:06:31.893Z,60.28
2019-04-18T07:09:31.578Z,60.65
2019-04-18T07:12:36.029Z,60.25
2019-04-18T07:15:05.521Z,60.43
2019-04-18T07:17:36.572Z,60.67
2019-04-18T07:20:17.536Z,60.38
2019-04-18T07:22:47.512Z,60.23
2019-04-18T07:25:16.239Z,60.25
2019-04-18T07:27:47.236Z,60.35
2019-04-18T07:30:16.022Z,60.58
2019-04-18T07:32:44.950Z,60.46
2019-04-18T07:35:13.799Z,60.55
2019-04-18T07:37:42.538Z,60.02
2019-04-18T07:40:12.610Z,59.36
2019-04-18T07:42:45.452Z,58.92
2019-04-18T07:45:35.395Z,58.65
2019-04-18T07:48:36.035Z,58.50
2019-04-18T07:51:07.026Z,58.13
2019-04-18T07:53:35.813Z,57.41
2019-04-18T07:56:06.951Z,57.01
2019-04-18T07:58:35.097Z,56.90
2019-04-18T08:01:04.691Z,56.68
2019-04-18T08:03:40.613Z,55.53
2019-04-18T08:06:04.502Z,54.72
2019-04-18T08:08:33.185Z,53.57
2019-04-18T08:11:01.876Z,53.57
2019-04-18T08:13:30.584Z,53.31
2019-04-18T08:15:59.271Z,53.33
2019-04-18T08:18:28.038Z,53.08
2019-04-18T08:20:57.591Z,52.58
2019-04-18T08:23:33.902Z,52.41
2019-04-18T08:25:56.974Z,52.09
2019-04-18T08:28:25.593Z,51.86
2019-04-18T08:31:22.540Z,51.48
2019-04-18T08:48:22.245Z,50.12
2019-04-18T08:50:55.474Z,48.75
2019-04-18T08:53:55.502Z,48.66
2019-04-18T08:56:49.377Z,48.30
2019-04-18T08:59:38.863Z,47.56
2019-04-18T09:02:06.508Z,47.66
2019-04-18T09:04:38.404Z,47.59
2019-04-18T09:07:42.913Z,47.45
2019-04-18T09:17:41.519Z,46.45
2019-04-18T09:20:14.437Z,46.69
2019-04-18T09:22:48.708Z,46.60
2019-04-18T09:25:56.654Z,45.76
2019-04-18T09:29:06.713Z,45.76
2019-04-18T09:36:20.896Z,45.94
2019-04-18T09:42:53.053Z,44.54
2019-04-18T09:51:44.703Z,43.74
2019-04-18T09:54:31.173Z,44.04
2019-04-18T10:00:24.320Z,43.57
2019-04-18T10:03:15.583Z,43.16
2019-04-18T10:09:16.552Z,42.74
2019-04-18T10:12:10.671Z,42.74
2019-04-18T10:14:39.665Z,41.95
2019-04-18T10:17:14.097Z,41.95
2019-04-18T10:19:45.417Z,42.30
2019-04-18T10:22:35.447Z,42.08
2019-04-18T10:28:14.798Z,42.17
2019-04-18T10:30:50.847Z,41.72
2019-04-18T10:33:23.002Z,41.74
2019-04-18T10:36:14.114Z,41.51
2019-04-18T10:39:15.625Z,41.51
2019-04-18T10:41:52.542Z,40.60
2019-04-18T10:44:21.388Z,40.73
2019-04-18T10:46:51.467Z,40.95
2019-04-18T10:49:32.882Z,40.95
2019-04-18T10:52:05.017Z,40.88
2019-04-18T10:54:33.825Z,40.88
2019-04-18T10:58:17.506Z,39.50
2019-04-18T11:00:46.310Z,39.50
2019-04-18T11:03:15.056Z,40.27
2019-04-18T11:05:43.832Z,40.20
2019-04-18T11:08:12.692Z,40.44
2019-04-18T11:10:41.521Z,40.44
2019-04-18T11:13:10.665Z,38.46
2019-04-18T11:15:39.373Z,38.46
2019-04-18T11:18:08.570Z,39.49
2019-04-18T11:20:37.719Z,39.15
2019-04-18T11:23:06.695Z,39.78
2019-04-18T11:25:35.457Z,38.74
2019-04-18T11:28:05.491Z,38.71
2019-04-18T11:30:34.338Z,37.92
2019-04-18T11:33:04.179Z,37.92
2019-04-18T11:35:32.907Z,38.24
2019-04-18T11:38:01.741Z,38.24
2019-04-18T11:40:30.597Z,38.43
2019-04-18T11:42:59.284Z,38.54
2019-04-18T11:45:28.481Z,38.54
2019-04-18T11:47:57.451Z,38.27
2019-04-18T11:50:26.241Z,38.27
2019-04-18T11:52:54.958Z,37.14
2019-04-18T11:55:23.758Z,37.72
2019-04-18T11:57:52.450Z,36.59
2019-04-18T12:00:39.453Z,36.35
2019-04-18T12:03:33.371Z,36.99
2019-04-18T12:06:02.760Z,36.07
2019-04-18T12:08:31.381Z,36.22
2019-04-18T12:11:00.111Z,35.73
2019-04-18T12:13:29.469Z,36.29
2019-04-18T12:15:59.887Z,35.69
2019-04-18T12:18:28.580Z,35.11
2019-04-18T12:20:57.190Z,35.29
2019-04-18T12:23:25.792Z,35.06
2019-04-18T12:25:54.413Z,34.63
2019-04-18T12:28:23.177Z,35.20
2019-04-18T12:30:51.792Z,34.66
2019-04-18T12:33:20.470Z,35.43
2019-04-18T12:35:49.141Z,34.72
2019-04-18T12:38:17.772Z,35.40
2019-04-18T12:40:46.541Z,34.42
2019-04-18T12:43:15.178Z,34.16
2019-04-18T12:45:43.970Z,34.08
2019-04-18T12:48:12.664Z,34.42
2019-04-18T12:50:41.352Z,34.15
2019-04-18T12:53:10.523Z,34.68
2019-04-18T12:55:39.778Z,33.61
2019-04-18T12:58:12.066Z,33.99
2019-04-18T13:00:38.805Z,34.50
2019-04-18T13:03:07.849Z,34.58
2019-04-18T13:05:36.486Z,34.63
2019-04-18T13:08:25.789Z,33.97
2019-04-18T13:11:14.142Z,33.88
2019-04-18T13:14:03.242Z,34.18
2019-04-18T13:16:38.452Z,33.86
2019-04-18T13:19:07.148Z,34.18
2019-04-18T13:21:35.988Z,34.00
2019-04-18T13:24:10.044Z,34.12
2019-04-18T13:26:36.548Z,34.55
2019-04-18T13:29:05.425Z,34.33
2019-04-18T13:31:34.213Z,34.48
2019-04-18T13:34:03.070Z,33.75
2019-04-18T13:36:31.839Z,33.80
2019-04-18T13:39:05.414Z,34.67
2019-04-18T13:41:33.572Z,33.71
2019-04-18T13:44:02.218Z,33.55
2019-04-18T13:46:41.750Z,33.27
2019-04-18T13:49:12.310Z,32.75
2019-04-18T13:51:40.946Z,33.30
2019-04-18T13:54:10.927Z,33.53
2019-04-18T13:56:39.682Z,33.06
2019-04-18T13:59:10.482Z,33.06
2019-04-18T14:01:39.697Z,33.06
2019-04-18T14:04:08.725Z,33.14
2019-04-18T14:06:37.527Z,33.32
2019-04-18T14:09:07.964Z,32.90
2019-04-18T14:11:36.804Z,33.12
2019-04-18T14:14:05.660Z,32.64
2019-04-18T14:16:34.285Z,32.50
2019-04-18T14:19:02.963Z,32.75
2019-04-18T14:21:31.592Z,31.90
2019-04-18T14:24:00.261Z,31.95
2019-04-18T14:26:29.001Z,32.27
2019-04-18T14:28:57.787Z,32.33
2019-04-18T14:31:26.387Z,32.21
2019-04-18T14:33:55.022Z,31.98
2019-04-18T14:36:24.026Z,31.99
2019-04-18T14:38:52.652Z,32.23
2019-04-18T14:41:21.257Z,31.79
2019-04-18T14:43:50.069Z,32.02
2019-04-18T14:46:18.646Z,32.18
2019-04-18T14:48:47.325Z,32.14
2019-04-18T14:51:15.991Z,32.08
2019-04-18T14:53:44.621Z,31.71
2019-04-18T14:56:13.842Z,31.69
2019-04-18T14:58:42.949Z,31.63
2019-04-18T15:01:11.809Z,31.50
2019-04-18T15:03:40.506Z,32.13
2019-04-18T15:06:09.192Z,32.04
2019-04-18T15:08:45.446Z,31.90
2019-04-18T15:11:14.650Z,31.96
2019-04-18T15:13:43.312Z,31.30
2019-04-18T15:16:25.468Z,31.84
2019-04-18T15:19:02.699Z,31.50
2019-04-18T15:21:31.390Z,32.21
2019-04-18T15:24:00.150Z,32.01
2019-04-18T15:26:30.015Z,32.63
2019-04-18T15:29:07.601Z,31.92
2019-04-18T15:31:36.344Z,30.97
2019-04-18T15:34:05.328Z,31.61
2019-04-18T15:36:34.083Z,31.64
2019-04-18T15:39:02.861Z,32.15
2019-04-18T15:41:31.675Z,31.19
2019-04-18T15:44:00.364Z,31.60
2019-04-18T15:46:46.586Z,31.34
2019-04-18T15:49:15.355Z,31.37
2019-04-18T15:51:44.070Z,30.93
2019-04-18T15:54:12.861Z,30.98
2019-04-18T15:56:41.565Z,31.50
2019-04-18T15:59:10.174Z,30.90
2019-04-18T16:01:38.865Z,31.78
2019-04-18T16:04:07.660Z,31.36
2019-04-18T16:06:36.324Z,31.21
2019-04-18T16:09:06.907Z,31.43
2019-04-18T16:11:35.631Z,30.93
2019-04-18T16:14:41.291Z,31.16
2019-04-18T16:17:10.050Z,30.88
2019-04-18T16:19:38.956Z,31.33
2019-04-18T16:22:07.739Z,31.27
2019-04-18T16:24:36.518Z,31.57
2019-04-18T16:27:05.471Z,31.53
2019-04-18T16:29:34.198Z,31.64
2019-04-18T16:32:02.997Z,30.63
2019-04-18T16:34:31.626Z,31.21
2019-04-18T16:37:00.252Z,31.44
2019-04-18T16:39:29.235Z,31.63
2019-04-18T16:41:58.041Z,31.32
2019-04-18T16:44:26.723Z,31.41
2019-04-18T16:46:55.423Z,30.95
2019-04-18T16:49:24.037Z,31.76
2019-04-18T16:51:52.803Z,31.14
2019-04-18T16:54:21.416Z,31.23
2019-04-18T16:56:50.054Z,31.94
2019-04-18T16:59:18.657Z,31.20
2019-04-18T17:01:47.255Z,31.25
2019-04-18T17:04:15.943Z,31.28
2019-04-18T17:06:44.682Z,31.22
2019-04-18T17:09:24.545Z,30.92
2019-04-18T17:11:53.199Z,31.21
2019-04-18T17:14:22.136Z,30.80
2019-04-18T17:16:50.851Z,31.18
2019-04-18T17:19:19.549Z,31.47
2019-04-18T17:21:48.934Z,30.55
2019-04-18T17:24:20.671Z,30.71
2019-04-18T17:26:51.208Z,31.35
2019-04-18T17:29:19.957Z,30.80
2019-04-18T17:31:48.681Z,31.12
2019-04-18T17:34:28.578Z,30.79
2019-04-18T17:37:03.920Z,30.50
2019-04-18T17:39:32.837Z,30.96
2019-04-18T17:41:51.528Z,31.26
2019-04-18T17:44:22.453Z,31.27
2019-04-18T17:46:51.512Z,30.98
2019-04-18T17:49:23.991Z,30.91
2019-04-18T17:52:01.764Z,31.01
2019-04-18T17:54:35.642Z,30.68
2019-04-18T17:57:06.446Z,31.35
2019-04-18T17:59:39.268Z,30.98
2019-04-18T18:05:16.915Z,30.63
2019-04-18T18:07:49.752Z,30.52
2019-04-18T18:10:32.965Z,30.82
2019-04-18T18:13:23.617Z,30.71
2019-04-18T18:16:17.251Z,30.80
2019-04-18T18:19:01.332Z,30.74
2019-04-18T18:21:36.814Z,31.13
2019-04-18T18:24:10.838Z,31.24
2019-04-18T18:26:55.209Z,31.42
2019-04-18T18:29:29.322Z,31.37
2019-04-18T18:32:06.584Z,32.00
2019-04-18T18:35:11.279Z,31.83
2019-04-18T18:37:57.835Z,32.02
2019-04-18T18:40:25.348Z,32.33
2019-04-18T18:43:01.491Z,32.48
2019-04-18T18:45:34.777Z,32.35
2019-04-18T18:48:12.929Z,32.78
2019-04-18T18:51:07.892Z,32.73
2019-04-18T18:53:39.483Z,33.12
2019-04-18T18:56:24.265Z,33.25
2019-04-18T18:59:04.721Z,33.27
2019-04-18T19:01:31.264Z,33.32
2019-04-18T19:04:05.125Z,33.46
2019-04-18T19:06:40.340Z,33.49
2019-04-18T19:09:29.455Z,33.65
2019-04-18T19:11:59.793Z,34.44
2019-04-18T19:14:31.204Z,34.44
2019-04-18T19:17:08.885Z,33.82
2019-04-18T19:19:33.406Z,33.97
2019-04-18T19:22:16.539Z,34.33
2019-04-18T19:24:55.949Z,34.33
2019-04-18T19:27:47.309Z,34.09
2019-04-18T19:30:41.666Z,34.31
2019-04-18T19:33:12.303Z,34.59
2019-04-18T19:35:58.513Z,34.34
2019-04-18T19:38:44.016Z,34.75
2019-04-18T19:41:10.649Z,34.83
2019-04-18T19:43:33.974Z,34.45
2019-04-18T19:46:02.371Z,34.45
2019-04-18T19:48:38.012Z,34.40
2019-04-18T19:51:12.020Z,34.12
2019-04-18T19:53:48.723Z,34.42
2019-04-18T19:56:30.364Z,34.01
2019-04-18T19:59:05.365Z,34.01
2019-04-18T20:01:40.268Z,34.65
2019-04-18T20:04:10.859Z,34.38
2019-04-18T20:07:16.784Z,35.10
2019-04-18T20:12:35.332Z,35.67
2019-04-18T20:15:06.046Z,35.67
2019-04-18T20:17:47.572Z,36.08
2019-04-18T20:20:19.945Z,37.28
2019-04-18T20:25:49.236Z,36.93
2019-04-18T20:28:42.920Z,38.09
2019-04-18T20:31:26.264Z,38.09
2019-04-18T20:37:28.703Z,38.11
2019-04-18T20:40:08.840Z,38.11
2019-04-18T20:42:31.152Z,38.63
2019-04-18T20:44:53.565Z,38.52
2019-04-18T20:47:45.609Z,39.43
2019-04-18T20:50:16.072Z,39.54
2019-04-18T20:52:58.426Z,39.54
2019-04-18T20:55:27.748Z,40.35
2019-04-18T20:58:01.530Z,40.35
2019-04-18T21:00:26.513Z,40.67
2019-04-18T21:03:01.941Z,40.67
2019-04-18T21:05:44.191Z,41.06
2019-04-18T21:08:33.412Z,41.06
2019-04-18T21:10:52.212Z,41.25
2019-04-18T21:13:28.066Z,41.13
2019-04-18T21:16:05.379Z,41.53
2019-04-18T21:18:38.326Z,41.48
2019-04-18T21:21:12.315Z,41.48
2019-04-18T21:24:36.042Z,42.18
2019-04-18T21:27:11.185Z,42.23
2019-04-18T21:29:42.307Z,42.23
2019-04-18T21:32:16.431Z,42.68
2019-04-18T21:34:59.198Z,42.58
2019-04-18T21:37:36.717Z,42.58
2019-04-18T21:40:10.789Z,43.24
2019-04-18T21:42:38.599Z,43.34
2019-04-18T21:45:09.884Z,43.71
2019-04-18T21:47:41.149Z,43.80
2019-04-18T21:50:21.459Z,44.28
2019-04-18T21:52:47.225Z,44.24
2019-04-18T21:55:20.295Z,44.50
2019-04-18T21:57:53.463Z,44.20
2019-04-18T22:00:38.904Z,44.47
2019-04-18T22:03:11.767Z,44.57
2019-04-18T22:05:49.793Z,44.57
2019-04-18T22:08:25.519Z,44.38
2019-04-18T22:11:14.714Z,44.72
2019-04-18T22:13:46.972Z,44.75
2019-04-18T22:16:19.483Z,45.08
2019-04-18T22:18:49.908Z,45.81
2019-04-18T22:21:26.509Z,45.13
2019-04-18T22:24:15.207Z,45.26
2019-04-18T22:26:40.452Z,45.96
2019-04-18T22:29:31.923Z,45.41
2019-04-18T22:32:10.832Z,45.52
2019-04-18T22:34:40.917Z,45.61
2019-04-18T22:37:25.140Z,45.82
2019-04-18T22:39:50.787Z,45.57
2019-04-18T22:42:25.094Z,45.25
2019-04-18T22:45:00.984Z,46.13
2019-04-18T22:47:34.712Z,46.13
2019-04-18T22:50:06.180Z,45.76
2019-04-18T22:52:38.364Z,45.98
2019-04-18T22:55:14.868Z,45.79
2019-04-18T22:57:44.293Z,46.15
2019-04-18T23:00:23.877Z,46.00
2019-04-18T23:02:46.684Z,46.34
2019-04-18T23:05:20.283Z,46.37
2019-04-18T23:08:07.478Z,46.41
2019-04-18T23:10:31.153Z,46.73
2019-04-18T23:12:59.150Z,46.92
2019-04-18T23:15:33.135Z,47.01
2019-04-18T23:18:24.959Z,47.24
2019-04-18T23:20:52.170Z,47.12
2019-04-18T23:23:26.746Z,47.40
2019-04-18T23:26:09.299Z,47.87
2019-04-18T23:28:32.317Z,47.77
2019-04-18T23:31:09.484Z,47.98
2019-04-18T23:33:39.216Z,48.20
2019-04-18T23:36:09.715Z,48.59
2019-04-18T23:38:47.021Z,48.83
2019-04-18T23:41:16.926Z,48.96
2019-04-18T23:43:44.055Z,49.03
2019-04-18T23:46:17.979Z,49.03
2019-04-18T23:48:45.054Z,49.63
2019-04-18T23:51:14.779Z,49.76
2019-04-18T23:53:45.878Z,49.49
2019-04-18T23:56:16.573Z,49.41
2019-04-18T23:58:51.868Z,49.27
